createdAt,value
2019-02-08T00:01:42.163Z,14.17
2019-02-08T00:04:10.061Z,17.03
2019-02-08T00:06:37.734Z,22.30
2019-02-08T00:09:09.479Z,16.60
2019-02-08T00:11:37.328Z,18.77
2019-02-08T00:14:09.173Z,17.97
2019-02-08T00:16:39.717Z,12.17
2019-02-08T00:19:07.503Z,15.47
2019-02-08T00:21:35.443Z,16.57
2019-02-08T00:24:04.522Z,15.27
2019-02-08T00:26:32.343Z,16.50
2019-02-08T00:29:00.016Z,16.67
2019-02-08T00:31:29.328Z,20.50
2019-02-08T00:33:56.881Z,16.17
2019-02-08T00:36:24.595Z,18.00
2019-02-08T00:38:52.575Z,22.53
2019-02-08T00:41:20.271Z,22.37
2019-02-08T00:43:50.124Z,17.40
2019-02-08T00:46:18.076Z,14.83
2019-02-08T00:48:46.130Z,17.37
2019-02-08T00:51:13.722Z,14.30
2019-02-08T00:53:41.759Z,15.33
2019-02-08T00:56:09.569Z,18.87
2019-02-08T00:58:38.593Z,15.90
2019-02-08T01:01:06.385Z,17.37
2019-02-08T01:03:34.574Z,15.60
2019-02-08T01:06:03.486Z,12.33
2019-02-08T01:08:31.115Z,12.00
2019-02-08T01:11:01.128Z,21.47
2019-02-08T01:13:31.309Z,17.23
2019-02-08T01:15:59.600Z,16.20
2019-02-08T01:18:27.272Z,21.00
2019-02-08T01:20:55.347Z,20.07
2019-02-08T01:23:23.565Z,12.23
2019-02-08T01:25:51.437Z,14.90
2019-02-08T01:28:19.058Z,20.60
2019-02-08T01:30:47.038Z,18.77
2019-02-08T01:33:15.363Z,14.13
2019-02-08T01:35:43.031Z,12.07
2019-02-08T01:38:11.043Z,14.83
2019-02-08T01:40:38.951Z,14.27
2019-02-08T01:43:07.303Z,14.83
2019-02-08T01:45:35.858Z,16.87
2019-02-08T01:48:04.525Z,14.10
2019-02-08T01:50:32.578Z,12.40
2019-02-08T01:53:00.429Z,14.90
2019-02-08T01:55:29.103Z,14.60
2019-02-08T01:57:57.548Z,13.53
2019-02-08T02:00:37.185Z,16.30
2019-02-08T02:03:06.130Z,11.87
2019-02-08T02:05:33.944Z,15.07
2019-02-08T02:08:02.422Z,12.23
2019-02-08T02:10:39.194Z,14.43
2019-02-08T02:13:08.481Z,12.70
2019-02-08T02:15:36.237Z,17.30
2019-02-08T02:18:05.245Z,12.53
2019-02-08T02:20:35.514Z,11.97
2019-02-08T02:23:03.905Z,10.97
2019-02-08T02:25:31.840Z,12.40
2019-02-08T02:27:59.879Z,11.97
2019-02-08T02:30:30.175Z,14.73
2019-02-08T02:32:57.870Z,15.23
2019-02-08T02:35:25.802Z,13.43
2019-02-08T02:37:53.583Z,11.53
2019-02-08T02:40:21.775Z,11.60
2019-02-08T02:42:51.196Z,11.57
2019-02-08T02:45:23.953Z,11.57
2019-02-08T02:47:51.801Z,12.67
2019-02-08T02:50:20.051Z,8.10
2019-02-08T02:52:47.750Z,14.60
2019-02-08T02:55:15.869Z,10.70
2019-02-08T02:57:44.021Z,11.80
2019-02-08T03:00:16.060Z,11.70
2019-02-08T03:02:43.903Z,14.83
2019-02-08T03:05:12.285Z,15.97
2019-02-08T03:07:40.070Z,13.30
2019-02-08T03:10:09.629Z,17.50
2019-02-08T03:12:37.818Z,21.07
2019-02-08T03:15:07.411Z,9.77
2019-02-08T03:17:35.122Z,16.03
2019-02-08T03:20:04.124Z,14.37
2019-02-08T03:22:31.708Z,16.47
2019-02-08T03:24:59.355Z,14.17
2019-02-08T03:27:27.415Z,16.40
2019-02-08T03:29:55.057Z,16.50
2019-02-08T03:32:22.663Z,10.30
2019-02-08T03:34:51.136Z,12.97
2019-02-08T03:37:19.068Z,15.33
2019-02-08T03:39:46.754Z,13.07
2019-02-08T03:42:14.445Z,13.27
2019-02-08T03:44:47.589Z,13.47
2019-02-08T03:47:18.541Z,10.30
2019-02-08T03:49:47.722Z,18.00
2019-02-08T03:52:15.304Z,11.70
2019-02-08T03:54:42.967Z,14.00
2019-02-08T03:57:10.619Z,11.73
2019-02-08T03:59:38.305Z,13.80
2019-02-08T04:02:06.259Z,14.70
2019-02-08T04:04:33.976Z,11.30
2019-02-08T04:07:01.674Z,14.33
2019-02-08T04:09:29.427Z,15.77
2019-02-08T04:12:02.832Z,13.10
2019-02-08T04:14:30.529Z,12.07
2019-02-08T04:16:58.210Z,15.13
2019-02-08T04:19:25.878Z,16.33
2019-02-08T04:21:53.794Z,20.30
2019-02-08T04:24:29.826Z,9.27
2019-02-08T04:26:51.810Z,10.53
2019-02-08T04:29:19.545Z,11.53
2019-02-08T04:31:47.920Z,13.27
2019-02-08T04:34:15.585Z,12.43
2019-02-08T04:36:43.282Z,13.13
2019-02-08T04:39:11.119Z,10.97
2019-02-08T04:41:39.170Z,10.13
2019-02-08T04:44:06.848Z,7.63
2019-02-08T04:46:35.141Z,12.37
2019-02-08T04:49:02.752Z,12.93
2019-02-08T04:51:30.363Z,9.83
2019-02-08T04:53:58.248Z,16.03
2019-02-08T04:56:26.163Z,10.50
2019-02-08T04:58:53.786Z,12.17
2019-02-08T05:01:21.937Z,13.60
2019-02-08T05:03:49.490Z,11.17
2019-02-08T05:06:19.471Z,11.90
2019-02-08T05:08:48.701Z,11.13
2019-02-08T05:11:19.579Z,10.27
2019-02-08T05:13:57.068Z,11.10
2019-02-08T05:16:24.991Z,9.10
2019-02-08T05:18:52.619Z,8.90
2019-02-08T05:21:22.864Z,11.07
2019-02-08T05:23:50.583Z,11.23
2019-02-08T05:26:18.163Z,12.57
2019-02-08T05:28:46.058Z,11.80
2019-02-08T05:31:13.865Z,10.47
2019-02-08T05:33:41.476Z,9.93
2019-02-08T05:36:09.280Z,7.60
2019-02-08T05:38:36.991Z,12.77
2019-02-08T05:41:04.635Z,11.10
2019-02-08T05:43:32.175Z,12.93
2019-02-08T05:45:59.825Z,17.03
2019-02-08T05:48:27.502Z,17.30
2019-02-08T05:50:56.957Z,12.27
2019-02-08T05:53:24.623Z,10.63
2019-02-08T05:55:54.807Z,12.57
2019-02-08T05:58:22.452Z,15.33
2019-02-08T06:00:55.640Z,11.47
2019-02-08T06:03:23.250Z,10.87
2019-02-08T06:05:51.214Z,14.27
2019-02-08T06:08:19.055Z,15.77
2019-02-08T06:10:46.729Z,14.30
2019-02-08T06:13:14.605Z,14.00
2019-02-08T06:15:42.491Z,12.20
2019-02-08T06:18:11.036Z,11.00
2019-02-08T06:20:39.661Z,9.30
2019-02-08T06:23:07.471Z,11.60
2019-02-08T06:25:35.231Z,8.40
2019-02-08T06:28:04.016Z,12.13
2019-02-08T06:30:31.991Z,8.70
2019-02-08T06:33:00.698Z,9.60
2019-02-08T06:35:29.763Z,11.57
2019-02-08T06:37:57.484Z,13.67
2019-02-08T06:40:25.441Z,14.80
2019-02-08T06:42:57.231Z,12.90
2019-02-08T06:45:25.339Z,8.50
2019-02-08T06:47:53.874Z,13.17
2019-02-08T06:50:23.018Z,11.30
2019-02-08T06:52:50.711Z,12.43
2019-02-08T06:55:19.307Z,8.97
2019-02-08T06:58:07.091Z,10.97
2019-02-08T07:01:00.273Z,14.43
2019-02-08T07:03:46.003Z,11.67
2019-02-08T07:06:32.027Z,16.93
2019-02-08T07:09:13.476Z,14.40
2019-02-08T07:12:09.610Z,16.90
2019-02-08T07:15:04.694Z,11.80
2019-02-08T07:17:51.776Z,13.77
2019-02-08T07:20:50.774Z,11.43
2019-02-08T07:23:45.260Z,12.20
2019-02-08T07:26:35.226Z,13.43
2019-02-08T07:29:18.728Z,13.10
2019-02-08T07:32:18.036Z,15.97
2019-02-08T07:35:03.616Z,13.03
2019-02-08T07:37:49.582Z,12.53
2019-02-08T07:40:48.140Z,12.00
2019-02-08T07:43:34.818Z,11.53
2019-02-08T07:46:25.720Z,11.87
2019-02-08T07:49:16.178Z,17.00
2019-02-08T07:52:06.471Z,16.17
2019-02-08T07:54:57.199Z,14.10
2019-02-08T07:57:47.911Z,11.00
2019-02-08T08:00:39.542Z,15.30
2019-02-08T08:03:32.350Z,12.67
2019-02-08T08:06:22.964Z,12.63
2019-02-08T08:09:13.474Z,13.07
2019-02-08T08:12:03.955Z,36.27
2019-02-08T08:14:51.892Z,14.30
2019-02-08T08:17:45.246Z,14.27
2019-02-08T08:20:37.325Z,12.13
2019-02-08T08:23:23.444Z,12.87
2019-02-08T08:26:18.841Z,9.37
2019-02-08T08:29:17.965Z,7.47
2019-02-08T08:32:19.461Z,13.63
2019-02-08T08:35:29.186Z,11.57
2019-02-08T08:38:53.806Z,12.23
2019-02-08T08:41:45.411Z,15.23
2019-02-08T08:44:38.218Z,14.70
2019-02-08T08:47:42.209Z,10.33
2019-02-08T08:50:59.756Z,11.43
2019-02-08T08:54:10.708Z,13.80
2019-02-08T08:57:06.759Z,17.97
2019-02-08T09:00:34.304Z,15.10
2019-02-08T09:03:27.208Z,11.53
2019-02-08T09:06:48.374Z,13.07
2019-02-08T09:09:58.148Z,11.73
2019-02-08T09:13:03.697Z,13.00
2019-02-08T09:16:24.022Z,9.80
2019-02-08T09:19:17.259Z,11.83
2019-02-08T09:22:05.352Z,11.33
2019-02-08T09:25:06.028Z,11.10
2019-02-08T09:28:23.951Z,11.37
2019-02-08T09:31:26.643Z,5.13
2019-02-08T09:34:19.745Z,11.73
2019-02-08T09:37:29.482Z,14.43
2019-02-08T09:40:29.587Z,8.40
2019-02-08T09:43:43.321Z,15.40
2019-02-08T09:46:59.073Z,9.97
2019-02-08T09:50:23.265Z,11.57
2019-02-08T09:53:25.791Z,6.97
2019-02-08T09:56:34.084Z,18.10
2019-02-08T09:59:55.824Z,10.00
2019-02-08T10:03:09.123Z,9.80
2019-02-08T10:06:31.819Z,7.03
2019-02-08T10:09:38.842Z,11.70
2019-02-08T10:12:47.002Z,7.10
2019-02-08T10:15:54.895Z,10.20
2019-02-08T10:19:22.254Z,11.47
2019-02-08T10:22:39.746Z,5.17
2019-02-08T10:25:54.126Z,8.93
2019-02-08T10:29:21.431Z,19.13
2019-02-08T10:32:28.281Z,10.27
2019-02-08T10:35:48.518Z,5.40
2019-02-08T10:39:06.480Z,7.83
2019-02-08T10:42:30.053Z,5.77
2019-02-08T10:45:37.846Z,12.03
2019-02-08T10:49:02.289Z,8.80
2019-02-08T10:52:06.681Z,5.33
2019-02-08T10:55:40.286Z,3.37
2019-02-08T10:58:52.784Z,7.67
2019-02-08T11:01:56.770Z,10.13
2019-02-08T11:05:00.421Z,6.63
2019-02-08T11:07:56.400Z,5.57
2019-02-08T11:11:10.571Z,6.50
2019-02-08T11:14:30.888Z,4.97
2019-02-08T11:17:54.807Z,5.90
2019-02-08T11:20:22.822Z,9.50
2019-02-08T11:22:53.937Z,5.30
2019-02-08T11:25:21.586Z,8.43
2019-02-08T11:27:49.704Z,8.50
2019-02-08T11:30:17.559Z,4.83
2019-02-08T11:32:45.319Z,7.07
2019-02-08T11:35:14.089Z,7.97
2019-02-08T11:37:46.232Z,7.03
2019-02-08T11:40:18.160Z,7.20
2019-02-08T11:42:46.237Z,5.10
2019-02-08T11:45:14.245Z,9.43
2019-02-08T11:47:42.000Z,2.90
2019-02-08T11:50:13.770Z,7.67
2019-02-08T11:52:42.830Z,4.17
2019-02-08T11:55:11.078Z,8.37
2019-02-08T11:57:38.983Z,5.53
2019-02-08T12:00:17.779Z,4.23
2019-02-08T12:02:46.479Z,10.10
2019-02-08T12:05:16.990Z,7.20
2019-02-08T12:07:45.499Z,4.23
2019-02-08T12:10:13.529Z,7.47
2019-02-08T12:12:41.495Z,9.13
2019-02-08T12:15:13.023Z,9.43
2019-02-08T12:17:41.008Z,7.93
2019-02-08T12:20:10.227Z,6.57
2019-02-08T12:22:40.516Z,8.13
2019-02-08T12:25:18.743Z,5.53
2019-02-08T12:27:49.217Z,5.33
2019-02-08T12:30:26.757Z,8.00
2019-02-08T12:32:54.437Z,10.20
2019-02-08T12:35:23.208Z,8.80
2019-02-08T12:37:51.267Z,14.20
2019-02-08T12:40:19.611Z,8.40
2019-02-08T12:42:47.389Z,9.97
2019-02-08T12:45:23.314Z,7.03
2019-02-08T12:47:51.998Z,7.53
2019-02-08T12:50:19.733Z,6.70
2019-02-08T12:52:49.191Z,10.70
2019-02-08T12:55:17.117Z,9.00
2019-02-08T12:57:44.727Z,6.60
2019-02-08T13:00:15.727Z,10.90
2019-02-08T13:02:44.167Z,11.80
2019-02-08T13:05:13.078Z,11.17
2019-02-08T13:07:40.729Z,6.60
2019-02-08T13:10:11.822Z,9.13
2019-02-08T13:12:39.431Z,3.37
2019-02-08T13:15:08.839Z,16.87
2019-02-08T13:17:36.637Z,5.87
2019-02-08T13:20:08.746Z,6.13
2019-02-08T13:22:36.507Z,3.97
2019-02-08T13:25:07.429Z,4.63
2019-02-08T13:27:37.694Z,6.43
2019-02-08T13:30:15.094Z,4.60
2019-02-08T13:32:46.027Z,6.37
2019-02-08T13:35:13.627Z,5.53
2019-02-08T13:37:41.722Z,6.87
2019-02-08T13:40:10.821Z,13.67
2019-02-08T13:42:38.553Z,5.33
2019-02-08T13:45:06.752Z,9.83
2019-02-08T13:47:34.410Z,3.60
2019-02-08T13:50:04.940Z,4.47
2019-02-08T13:52:40.113Z,5.10
2019-02-08T13:55:09.458Z,5.67
2019-02-08T13:57:37.256Z,2.73
2019-02-08T14:00:08.893Z,6.23
2019-02-08T14:02:37.028Z,3.63
2019-02-08T14:05:06.079Z,7.40
2019-02-08T14:07:34.303Z,6.57
2019-02-08T14:10:02.286Z,3.73
2019-02-08T14:12:31.087Z,8.63
2019-02-08T14:15:00.258Z,6.73
2019-02-08T14:17:31.567Z,6.07
2019-02-08T14:19:59.315Z,10.00
2019-02-08T14:22:28.356Z,6.23
2019-02-08T14:24:56.722Z,7.23
2019-02-08T14:27:24.671Z,5.83
2019-02-08T14:29:52.758Z,2.83
2019-02-08T14:32:22.497Z,6.37
2019-02-08T14:34:55.314Z,4.90
2019-02-08T14:37:25.538Z,7.60
2019-02-08T14:39:59.148Z,5.57
2019-02-08T14:42:28.492Z,5.17
2019-02-08T14:44:58.120Z,6.73
2019-02-08T14:47:31.142Z,6.10
2019-02-08T14:49:59.328Z,5.13
2019-02-08T14:52:33.544Z,5.57
2019-02-08T14:55:01.575Z,3.57
2019-02-08T14:57:29.487Z,4.87
2019-02-08T14:59:59.052Z,3.93
2019-02-08T15:02:27.054Z,6.63
2019-02-08T15:04:55.131Z,6.00
2019-02-08T15:07:22.770Z,4.17
2019-02-08T15:09:50.727Z,10.13
2019-02-08T15:12:18.625Z,5.93
2019-02-08T15:14:46.463Z,6.00
2019-02-08T15:17:17.811Z,2.70
2019-02-08T15:19:53.771Z,4.03
2019-02-08T15:22:21.617Z,11.73
2019-02-08T15:24:50.271Z,5.30
2019-02-08T15:27:24.134Z,5.57
2019-02-08T15:29:50.056Z,6.23
2019-02-08T15:32:17.741Z,5.30
2019-02-08T15:34:45.435Z,5.23
2019-02-08T15:37:13.702Z,6.23
2019-02-08T15:39:41.514Z,7.50
2019-02-08T15:42:09.268Z,3.60
2019-02-08T15:44:37.037Z,4.00
2019-02-08T15:47:04.952Z,6.73
2019-02-08T15:49:36.753Z,5.07
2019-02-08T15:52:06.339Z,5.13
2019-02-08T15:54:34.368Z,7.10
2019-02-08T15:57:02.347Z,5.67
2019-02-08T15:59:30.554Z,8.77
2019-02-08T16:01:58.339Z,5.33
2019-02-08T16:04:26.662Z,4.50
2019-02-08T16:06:56.629Z,5.90
2019-02-08T16:09:24.698Z,7.23
2019-02-08T16:11:52.495Z,6.40
2019-02-08T16:14:20.434Z,5.30
2019-02-08T16:16:48.319Z,6.50
2019-02-08T16:19:16.150Z,6.37
2019-02-08T16:21:45.266Z,7.87
2019-02-08T16:24:12.943Z,5.50
2019-02-08T16:26:42.729Z,6.40
2019-02-08T16:29:10.322Z,5.43
2019-02-08T16:31:38.314Z,5.30
2019-02-08T16:34:12.521Z,8.00
2019-02-08T16:36:40.663Z,8.00
2019-02-08T16:39:11.524Z,8.57
2019-02-08T16:41:39.370Z,5.37
2019-02-08T16:44:07.531Z,5.70
2019-02-08T16:46:38.091Z,6.60
2019-02-08T16:49:07.405Z,6.40
2019-02-08T16:51:35.219Z,7.93
2019-02-08T16:54:08.059Z,6.80
2019-02-08T16:56:36.142Z,3.33
2019-02-08T16:59:10.254Z,5.53
2019-02-08T17:01:44.013Z,4.33
2019-02-08T17:04:11.688Z,4.97
2019-02-08T17:06:41.803Z,8.87
2019-02-08T17:09:17.814Z,7.53
2019-02-08T17:11:47.061Z,6.57
2019-02-08T17:14:15.234Z,5.97
2019-02-08T17:16:43.093Z,5.43
2019-02-08T17:19:10.803Z,8.93
2019-02-08T17:21:38.523Z,5.95
2019-02-08T17:24:09.117Z,7.07
2019-02-08T17:26:39.273Z,4.03
2019-02-08T17:29:07.013Z,8.83
2019-02-08T17:31:37.736Z,6.20
2019-02-08T17:34:06.315Z,4.50
2019-02-08T17:36:34.418Z,6.20
2019-02-08T17:39:06.709Z,6.37
2019-02-08T17:41:34.595Z,5.53
2019-02-08T17:44:03.729Z,6.70
2019-02-08T17:46:34.211Z,5.07
2019-02-08T17:49:04.401Z,10.67
2019-02-08T17:51:32.266Z,6.17
2019-02-08T17:54:00.170Z,4.37
2019-02-08T17:56:28.106Z,5.10
2019-02-08T17:58:59.538Z,5.57
2019-02-08T18:01:27.512Z,4.73
2019-02-08T18:03:55.758Z,4.50
2019-02-08T18:06:23.591Z,6.03
2019-02-08T18:08:54.326Z,5.00
2019-02-08T18:11:22.247Z,3.07
2019-02-08T18:13:49.946Z,6.97
2019-02-08T18:16:26.346Z,4.70
2019-02-08T18:18:54.184Z,5.73
2019-02-08T18:21:22.187Z,5.13
2019-02-08T18:23:52.572Z,6.97
2019-02-08T18:26:22.592Z,3.60
2019-02-08T18:28:50.373Z,4.80
2019-02-08T18:31:17.973Z,4.00
2019-02-08T18:33:46.864Z,5.87
2019-02-08T18:36:17.826Z,4.17
2019-02-08T18:38:47.241Z,7.30
2019-02-08T18:41:15.296Z,4.20
2019-02-08T18:43:43.282Z,6.57
2019-02-08T18:46:11.401Z,3.57
2019-02-08T18:48:40.323Z,5.00
2019-02-08T18:51:08.045Z,6.47
2019-02-08T18:53:35.954Z,5.63
2019-02-08T18:56:05.016Z,10.97
2019-02-08T18:58:32.711Z,4.70
2019-02-08T19:01:00.919Z,8.27
2019-02-08T19:03:28.584Z,4.13
2019-02-08T19:06:00.740Z,5.97
2019-02-08T19:08:28.378Z,6.07
2019-02-08T19:11:00.140Z,7.47
2019-02-08T19:13:31.612Z,5.90
2019-02-08T19:15:59.550Z,6.90
2019-02-08T19:18:36.892Z,7.80
2019-02-08T19:21:07.750Z,4.20
2019-02-08T19:23:36.504Z,7.37
2019-02-08T19:26:12.085Z,5.37
2019-02-08T19:28:40.562Z,7.87
2019-02-08T19:31:08.497Z,5.13
2019-02-08T19:33:36.120Z,7.17
2019-02-08T19:36:05.282Z,6.67
2019-02-08T19:38:33.210Z,4.20
2019-02-08T19:41:00.953Z,4.67
2019-02-08T19:43:28.981Z,4.27
2019-02-08T19:45:56.652Z,4.87
2019-02-08T19:48:41.487Z,4.67
2019-02-08T19:51:12.286Z,6.57
2019-02-08T19:53:39.971Z,9.37
2019-02-08T19:56:09.386Z,5.27
2019-02-08T19:58:37.432Z,4.63
2019-02-08T20:01:05.421Z,5.53
2019-02-08T20:03:33.458Z,5.63
2019-02-08T20:06:03.389Z,5.93
2019-02-08T20:08:31.149Z,7.03
2019-02-08T20:11:01.707Z,5.77
2019-02-08T20:13:30.294Z,7.77
2019-02-08T20:15:58.299Z,4.47
2019-02-08T20:18:25.990Z,6.60
2019-02-08T20:21:16.404Z,6.77
2019-02-08T20:23:49.639Z,8.00
2019-02-08T20:26:18.148Z,6.23
2019-02-08T20:28:48.320Z,4.53
2019-02-08T20:31:16.324Z,6.63
2019-02-08T20:33:58.293Z,6.97
2019-02-08T20:36:45.695Z,5.23
2019-02-08T20:39:16.241Z,5.10
2019-02-08T20:41:46.264Z,7.27
2019-02-08T20:44:14.603Z,6.83
2019-02-08T20:46:42.453Z,4.43
2019-02-08T20:49:10.528Z,6.07
2019-02-08T20:51:38.644Z,6.27
2019-02-08T20:54:06.387Z,5.87
2019-02-08T20:56:34.534Z,4.10
2019-02-08T20:59:09.496Z,4.20
2019-02-08T21:01:40.613Z,7.40
2019-02-08T21:04:10.901Z,5.40
2019-02-08T21:06:38.463Z,6.47
2019-02-08T21:09:12.952Z,11.17
2019-02-08T21:11:41.152Z,3.80
2019-02-08T21:14:10.866Z,6.20
2019-02-08T21:16:38.906Z,8.03
2019-02-08T21:19:06.626Z,3.30
2019-02-08T21:21:34.234Z,6.07
2019-02-08T21:24:02.394Z,3.43
2019-02-08T21:26:30.432Z,5.67
2019-02-08T21:29:01.077Z,6.70
2019-02-08T21:31:32.572Z,7.30
2019-02-08T21:34:08.934Z,6.80
2019-02-08T21:36:38.958Z,6.17
2019-02-08T21:39:09.897Z,8.07
2019-02-08T21:41:38.048Z,6.73
2019-02-08T21:44:06.014Z,5.43
2019-02-08T21:46:36.514Z,8.50
2019-02-08T21:49:04.460Z,5.33
2019-02-08T21:51:32.122Z,8.73
2019-02-08T21:53:59.798Z,6.70
2019-02-08T21:56:27.608Z,6.40
2019-02-08T21:58:55.505Z,5.40
2019-02-08T22:01:45.074Z,5.93
2019-02-08T22:04:14.318Z,7.13
2019-02-08T22:06:42.355Z,5.03
2019-02-08T22:09:10.417Z,6.57
2019-02-08T22:11:39.252Z,5.93
2019-02-08T22:14:07.284Z,10.33
2019-02-08T22:16:35.169Z,4.83
2019-02-08T22:19:02.861Z,6.17
2019-02-08T22:21:32.303Z,7.37
2019-02-08T22:24:00.202Z,6.40
2019-02-08T22:26:28.286Z,5.60
2019-02-08T22:29:01.290Z,7.63
2019-02-08T22:31:29.078Z,6.30
2019-02-08T22:33:57.076Z,4.43
2019-02-08T22:36:29.899Z,6.80
2019-02-08T22:38:57.554Z,9.47
2019-02-08T22:41:28.025Z,6.50
2019-02-08T22:43:55.834Z,4.93
2019-02-08T22:46:23.411Z,4.70
2019-02-08T22:48:51.096Z,5.43
2019-02-08T22:51:21.930Z,8.93
2019-02-08T22:53:49.563Z,6.67
2019-02-08T22:56:17.858Z,6.33
2019-02-08T22:58:45.754Z,6.23
2019-02-08T23:01:26.346Z,6.97
2019-02-08T23:04:01.839Z,4.83
2019-02-08T23:06:32.526Z,4.20
2019-02-08T23:09:00.480Z,5.83
2019-02-08T23:11:28.464Z,5.10
2019-02-08T23:13:56.889Z,5.17
2019-02-08T23:16:27.510Z,5.87
2019-02-08T23:18:56.035Z,3.53
2019-02-08T23:21:23.940Z,4.97
2019-02-08T23:23:51.568Z,5.07
2019-02-08T23:26:19.124Z,3.40
2019-02-08T23:28:50.440Z,3.90
2019-02-08T23:31:20.553Z,5.03
2019-02-08T23:33:48.484Z,3.70
2019-02-08T23:36:36.682Z,3.37
2019-02-08T23:39:11.499Z,5.20
2019-02-08T23:41:39.371Z,4.20
2019-02-08T23:44:07.074Z,6.53
2019-02-08T23:46:34.795Z,4.27
2019-02-08T23:49:02.787Z,5.50
2019-02-08T23:51:33.221Z,6.03
2019-02-08T23:54:02.777Z,4.83
2019-02-08T23:56:31.980Z,2.03
2019-02-08T23:58:59.559Z,6.70
